Time;durP1;ratioP1;P1;durP2;ratioP2;P2;SDS_P1;SDS_P2;PMS_P1;PMS_P2;Temp;Humidity;BMP_temperature;BMP_pressure;BME280_temperature;BME280_humidity;BME280_pressure;Samples;Min_cycle;Max_cycle;Signal;HPM_P1;HPM_P2
2022/08/13 00:02:34;;;;;;;15.32;10.27;;;;;;;19.89;100.00;101775.50;7383272;19;20011;-76
2022/08/13 00:05:22;;;;;;;13.85;10.35;;;;;;;19.87;100.00;101774.63;7383186;19;20026;-76
2022/08/13 00:08:12;;;;;;;16.33;9.27;;;;;;;19.85;100.00;101768.44;7386792;19;20011;-76
2022/08/13 00:10:46;;;;;;;13.75;8.57;;;;;;;19.82;100.00;101764.03;7399529;19;20046;-76
2022/08/13 00:13:18;;;;;;;13.15;9.10;;;;;;;19.79;100.00;101764.06;7400260;19;20060;-76
2022/08/13 00:15:53;;;;;;;11.63;8.80;;;;;;;19.77;100.00;101772.97;7400902;19;20044;-77
2022/08/13 00:18:27;;;;;;;13.35;8.25;;;;;;;19.76;100.00;101772.06;7401175;19;20006;-78
2022/08/13 00:21:05;;;;;;;13.13;8.02;;;;;;;19.80;100.00;101767.59;7402599;19;20047;-78
2022/08/13 00:23:40;;;;;;;13.27;7.90;;;;;;;19.78;100.00;101772.94;7399608;19;20014;-76
2022/08/13 00:26:39;;;;;;;12.93;8.38;;;;;;;19.76;99.91;101772.06;7404426;19;20022;-77
2022/08/13 00:29:15;;;;;;;11.88;7.60;;;;;;;19.73;100.00;101772.13;7401721;19;20014;-79
2022/08/13 00:31:54;;;;;;;11.90;7.30;;;;;;;19.70;100.00;101771.28;7398357;19;20323;-76
2022/08/13 00:34:27;;;;;;;11.48;7.68;;;;;;;19.68;98.01;101767.75;7397999;19;20027;-76
2022/08/13 00:37:10;;;;;;;14.35;8.07;;;;;;;19.65;97.10;101766.00;7398342;19;20021;-76
2022/08/13 00:39:40;;;;;;;13.35;7.75;;;;;;;19.61;96.63;101769.59;7392491;19;20055;-77
2022/08/13 00:42:37;;;;;;;13.70;7.43;;;;;;;19.57;96.60;101773.16;7389084;19;20011;-75
2022/08/13 00:45:22;;;;;;;12.20;7.93;;;;;;;19.54;95.40;101774.09;7391581;19;20599;-76
2022/08/13 00:50:39;;;;;;;;;;;;;;;19.50;95.15;101771.44;7390546;19;20113;-75
2022/08/13 00:53:17;;;;;;;15.15;7.50;;;;;;;19.49;93.94;101764.34;7385623;19;20061;-76
2022/08/13 00:55:58;;;;;;;14.15;7.90;;;;;;;19.51;92.20;101767.88;7384980;19;20922;-76
2022/08/13 00:58:35;;;;;;;14.85;8.15;;;;;;;19.49;93.20;101769.66;7386745;19;20438;-76
2022/08/13 01:01:11;;;;;;;13.07;8.10;;;;;;;19.44;91.46;101766.16;7390874;19;20070;-76
2022/08/13 01:03:48;;;;;;;12.93;8.00;;;;;;;19.39;90.75;101762.66;7389743;19;20011;-76
2022/08/13 01:06:40;;;;;;;12.25;6.95;;;;;;;19.34;91.43;101760.03;7391865;19;20024;-76
2022/08/13 01:09:19;;;;;;;13.18;7.07;;;;;;;19.26;92.25;101762.75;7392668;19;20011;-78
2022/08/13 01:12:14;;;;;;;12.32;8.18;;;;;;;19.21;92.50;101756.59;7389116;19;20015;-76
2022/08/13 01:14:51;;;;;;;11.30;7.40;;;;;;;19.13;92.47;101762.84;7389738;19;20021;-77
2022/08/13 01:17:27;;;;;;;10.95;7.07;;;;;;;19.01;92.37;101763.81;7391369;19;20972;-77
2022/08/13 01:20:21;;;;;;;10.45;6.88;;;;;;;18.93;92.14;101766.53;7393024;19;20355;-75
2022/08/13 01:23:09;;;;;;;10.77;7.35;;;;;;;18.85;92.49;101771.00;7391517;19;20007;-79
2022/08/13 01:25:40;;;;;;;10.77;6.50;;;;;;;18.75;91.98;101766.66;7393406;19;20351;-77
2022/08/13 01:28:38;;;;;;;11.93;6.93;;;;;;;18.69;93.95;101774.69;7388369;19;20052;-77
2022/08/13 01:31:14;;;;;;;10.35;6.53;;;;;;;18.64;93.84;101776.47;7390428;19;20006;-76
2022/08/13 01:33:56;;;;;;;11.73;6.82;;;;;;;18.63;93.01;101776.50;7391768;19;20520;-76
2022/08/13 01:36:35;;;;;;;11.27;7.28;;;;;;;18.55;93.33;101776.50;7389908;19;20006;-78
2022/08/13 01:39:37;;;;;;;10.90;7.13;;;;;;;18.50;93.61;101779.16;7388163;19;20010;-77
2022/08/13 01:42:13;;;;;;;11.82;6.72;;;;;;;18.47;94.11;101773.88;7390648;19;20346;-78
2022/08/13 01:44:51;;;;;;;11.45;7.22;;;;;;;18.42;96.17;101780.97;7387914;19;20045;-78
2022/08/13 01:50:38;;;;;;;10.68;7.10;;;;;;;18.36;97.59;101770.38;7393679;19;20027;-75
2022/08/13 01:53:46;;;;;;;10.15;6.88;;;;;;;18.29;97.62;101769.50;7376182;19;20009;-76
2022/08/13 01:56:54;;;;;;;9.80;7.20;;;;;;;18.22;99.37;101778.38;7378902;19;20082;-76
2022/08/13 01:59:41;;;;;;;12.60;7.80;;;;;;;18.17;99.85;101773.97;7381036;19;20010;-75
2022/08/13 02:02:49;;;;;;;13.07;7.67;;;;;;;18.11;99.57;101777.53;7384268;19;20459;-76
2022/08/13 02:05:31;;;;;;;12.23;7.35;;;;;;;18.08;100.00;101779.31;7382509;19;20019;-75
2022/08/13 02:08:40;;;;;;;12.95;7.07;;;;;;;18.02;100.00;101784.63;7384272;19;20010;-75
2022/08/13 02:11:24;;;;;;;12.07;7.75;;;;;;;17.97;100.00;101774.91;7383441;19;20002;-76
2022/08/13 02:17:35;;;;;;;10.43;7.15;;;;;;;17.84;100.00;101775.81;7380568;19;20410;-75
2022/08/13 02:20:31;;;;;;;13.55;8.05;;;;;;;17.80;100.00;101774.06;7388057;19;20022;-75
2022/08/13 02:23:22;;;;;;;12.45;8.85;;;;;;;17.77;100.00;101774.06;7385466;19;20018;-76
2022/08/13 02:26:27;;;;;;;11.98;7.85;;;;;;;17.72;100.00;101767.88;7384695;19;20197;-75
2022/08/13 02:29:25;;;;;;;13.43;8.40;;;;;;;17.68;100.00;101768.78;7383293;19;20471;-76
2022/08/13 02:32:10;;;;;;;12.32;8.27;;;;;;;17.70;100.00;101769.66;7384045;19;20043;-76
2022/08/13 02:34:49;;;;;;;14.65;8.48;;;;;;;17.67;100.00;101768.81;7391075;19;20032;-78
2022/08/13 02:37:24;;;;;;;13.02;7.97;;;;;;;17.63;100.00;101771.44;7392150;19;20007;-76
2022/08/13 02:43:05;;;;;;;13.23;8.60;;;;;;;17.54;100.00;101782.06;7395227;19;20013;-77
2022/08/13 02:45:42;;;;;;;13.50;8.23;;;;;;;17.50;100.00;101780.28;7397435;19;20015;-77
2022/08/13 02:48:17;;;;;;;13.85;8.18;;;;;;;17.45;100.00;101775.88;7396282;19;20021;-76
2022/08/13 02:50:55;;;;;;;12.20;8.13;;;;;;;17.45;100.00;101778.50;7395057;19;20058;-76
2022/08/13 02:53:27;;;;;;;12.52;7.88;;;;;;;17.41;100.00;101782.06;7375734;19;20010;-75
2022/08/13 02:56:05;;;;;;;12.25;7.80;;;;;;;17.35;100.00;101774.09;7390978;19;20011;-76
2022/08/13 02:58:41;;;;;;;12.40;8.20;;;;;;;17.29;100.00;101783.81;7392776;19;20006;-75
2022/08/13 03:01:17;;;;;;;11.43;7.95;;;;;;;17.25;100.00;101779.38;7393299;19;20025;-78
2022/08/13 03:03:55;;;;;;;12.90;8.65;;;;;;;17.21;100.00;101774.97;7394969;19;20017;-77
2022/08/13 03:06:28;;;;;;;12.50;8.75;;;;;;;17.20;100.00;101778.50;7394389;19;20321;-76
2022/08/13 03:09:01;;;;;;;11.35;7.32;;;;;;;17.20;100.00;101780.28;7393071;19;20039;-77
2022/08/13 03:11:36;;;;;;;13.32;8.40;;;;;;;17.18;100.00;101777.63;7394166;19;20010;-77
2022/08/13 03:14:15;;;;;;;15.60;8.73;;;;;;;17.21;100.00;101771.44;7399985;19;20029;-76
2022/08/13 03:16:53;;;;;;;14.05;8.82;;;;;;;17.21;100.00;101777.63;7393386;19;20018;-76
2022/08/13 03:19:24;;;;;;;13.48;9.05;;;;;;;17.17;100.00;101781.16;7396201;19;20051;-76
2022/08/13 03:22:09;;;;;;;14.90;9.07;;;;;;;17.16;100.00;101781.16;7394078;19;20003;-76
2022/08/13 03:24:40;;;;;;;13.50;8.88;;;;;;;17.13;100.00;101778.50;7399651;19;20015;-76
2022/08/13 03:27:14;;;;;;;13.02;9.25;;;;;;;17.11;100.00;101786.44;7397686;19;20017;-76
2022/08/13 03:29:53;;;;;;;14.57;8.75;;;;;;;17.06;100.00;101782.00;7397708;19;20377;-76
2022/08/13 03:32:44;;;;;;;15.48;9.38;;;;;;;17.03;100.00;101782.00;7398737;19;20011;-76
2022/08/13 03:35:20;;;;;;;13.18;9.35;;;;;;;16.99;100.00;101782.00;7398980;19;20010;-76
2022/08/13 03:38:14;;;;;;;13.85;8.90;;;;;;;16.97;100.00;101780.22;7405000;19;20150;-77
2022/08/13 03:43:35;;;;;;;12.90;8.77;;;;;;;16.90;100.00;101774.03;7408016;19;20039;-76
2022/08/13 03:46:27;;;;;;;17.02;9.63;;;;;;;16.87;100.00;101779.31;7402969;19;20457;-77
2022/08/13 03:49:04;;;;;;;13.55;9.23;;;;;;;16.83;100.00;101774.00;7400179;19;20013;-74
2022/08/13 03:51:34;;;;;;;13.25;9.48;;;;;;;16.83;100.00;101785.50;7404719;19;20015;-78
2022/08/13 03:54:22;;;;;;;13.77;9.02;;;;;;;16.84;100.00;101781.09;7398266;19;20003;-76
2022/08/13 03:57:18;;;;;;;17.17;9.40;;;;;;;16.81;100.00;101778.44;7399798;19;20019;-76
2022/08/13 04:01:01;;;;;;;15.00;8.82;;;;;;;16.75;100.00;101776.66;7385236;19;20014;-75
2022/08/13 04:03:57;;;;;;;14.75;9.30;;;;;;;16.73;100.00;101774.88;7382628;19;20031;-75
2022/08/13 04:10:05;;;;;;;12.43;8.23;;;;;;;16.65;100.00;101778.38;7390027;19;20549;-74
2022/08/13 04:16:15;;;;;;;14.07;8.35;;;;;;;16.57;100.00;101776.59;7381655;19;20090;-75
2022/08/13 04:23:09;;;;;;;13.30;9.10;;;;;;;16.52;100.00;101768.63;7387991;19;20037;-76
2022/08/13 04:32:50;;;;;;;13.30;9.05;;;;;;;16.49;100.00;101773.91;7382236;19;20007;-76
2022/08/13 04:36:15;;;;;;;14.18;8.88;;;;;;;16.50;100.00;101775.69;7379956;19;20013;-76
2022/08/13 04:46:07;;;;;;;15.60;10.10;;;;;;;16.46;100.00;101783.59;7383882;19;20002;-76
2022/08/13 04:48:40;;;;;;;15.23;9.85;;;;;;;16.42;100.00;101777.41;7400983;19;20016;-78
2022/08/13 04:54:42;;;;;;;15.02;9.68;;;;;;;16.47;100.00;101775.66;7384879;19;20043;-76
2022/08/13 04:57:13;;;;;;;19.17;10.57;;;;;;;16.47;100.00;101780.06;7396137;19;20011;-77
2022/08/13 04:59:46;;;;;;;17.55;11.32;;;;;;;16.47;100.00;101777.44;7401615;19;20007;-78
2022/08/13 05:02:19;;;;;;;17.92;10.73;;;;;;;16.48;100.00;101774.78;7400753;19;20039;-77
2022/08/13 05:04:52;;;;;;;18.83;10.27;;;;;;;16.53;100.00;101780.97;7396723;19;20097;-77
2022/08/13 05:07:26;;;;;;;17.63;10.25;;;;;;;16.61;100.00;101783.66;7395502;19;20015;-77
2022/08/13 05:10:02;;;;;;;16.65;10.50;;;;;;;16.65;100.00;101775.72;7397166;19;20019;-77
2022/08/13 05:12:35;;;;;;;;;;;;;;;16.68;100.00;101781.03;7403326;19;20011;-76
2022/08/13 05:15:18;;;;;;;15.82;9.65;;;;;;;16.71;100.00;101771.34;7405424;19;19930;-77
2022/08/13 05:18:10;;;;;;;15.30;10.25;;;;;;;16.77;100.00;101774.88;7401477;19;20014;-78
2022/08/13 05:20:57;;;;;;;19.85;10.05;;;;;;;16.92;100.00;101779.34;7399744;19;20010;-77
2022/08/13 05:23:38;;;;;;;15.02;9.60;;;;;;;17.06;100.00;101782.00;7397477;19;20014;-76
2022/08/13 05:26:32;;;;;;;14.93;9.43;;;;;;;17.21;100.00;101777.63;7399624;19;20041;-77
2022/08/13 05:29:25;;;;;;;16.25;9.10;;;;;;;17.38;100.00;101782.03;7398513;19;20348;-76
2022/08/13 05:32:01;;;;;;;17.80;9.10;;;;;;;17.47;100.00;101784.69;7400068;19;20496;-79
2022/08/13 05:34:39;;;;;;;13.02;8.48;;;;;;;17.64;100.00;101781.16;7397136;19;20014;-78
2022/08/13 05:37:16;;;;;;;14.52;9.00;;;;;;;17.79;100.00;101774.94;7392216;19;20426;-78
2022/08/13 05:40:11;;;;;;;15.10;8.95;;;;;;;18.03;100.00;101783.75;7395501;19;20427;-78
2022/08/13 05:43:05;;;;;;;14.98;9.25;;;;;;;18.28;100.00;101777.50;7394700;19;20625;-78
2022/08/13 05:45:42;;;;;;;14.02;8.27;;;;;;;18.56;100.00;101772.94;7392843;19;20015;-75
2022/08/13 05:48:25;;;;;;;18.98;9.57;;;;;;;18.86;100.00;101771.91;7392542;19;20015;-78
2022/08/13 05:51:08;;;;;;;14.07;8.77;;;;;;;19.13;98.79;101771.72;7393094;19;20083;-77
2022/08/13 05:53:40;;;;;;;13.60;8.73;;;;;;;19.38;96.17;101776.84;7393633;19;20054;-76
2022/08/13 05:56:36;;;;;;;18.45;8.63;;;;;;;19.66;94.99;101783.72;7398534;19;20012;-77
2022/08/13 06:03:22;;;;;;;12.52;7.93;;;;;;;19.89;93.14;101780.81;7401644;19;20003;-77
2022/08/13 06:05:09;;;;;;;14.85;8.38;;;;;;;20.40;90.52;101770.50;7397812;19;20337;-76
2022/08/13 06:07:44;;;;;;;14.98;8.65;;;;;;;20.64;88.84;101782.63;7398694;19;20036;-76
2022/08/13 06:10:16;;;;;;;17.13;8.63;;;;;;;20.91;87.37;101776.91;7400417;19;20015;-77
2022/08/13 06:12:52;;;;;;;17.23;8.10;;;;;;;21.07;85.10;101778.44;7393269;19;20031;-78
2022/08/13 06:15:35;;;;;;;12.63;8.23;;;;;;;21.30;83.58;101780.78;7391044;19;20049;-78
2022/08/13 06:18:30;;;;;;;12.93;8.38;;;;;;;21.41;80.13;101776.16;7388690;19;20491;-76
2022/08/13 06:21:05;;;;;;;15.98;7.80;;;;;;;21.62;80.42;101772.22;7392782;19;20021;-77
2022/08/13 06:23:56;;;;;;;13.85;7.18;;;;;;;21.91;77.02;101777.00;7394424;19;20015;-77
2022/08/13 06:26:33;;;;;;;11.60;7.15;;;;;;;22.09;76.73;101773.13;7401511;19;20375;-77
2022/08/13 06:29:09;;;;;;;13.32;7.05;;;;;;;22.08;73.67;101777.59;7401557;19;20470;-76
2022/08/13 06:31:41;;;;;;;10.30;6.53;;;;;;;22.38;69.86;101768.09;7400766;19;20375;-77
2022/08/13 06:34:18;;;;;;;12.93;7.00;;;;;;;22.48;68.33;101771.44;7399370;19;20026;-78
2022/08/13 06:37:08;;;;;;;14.68;7.05;;;;;;;22.57;67.10;101770.38;7397978;19;20018;-76
2022/08/13 06:39:39;;;;;;;18.27;7.88;;;;;;;22.76;67.19;101769.06;7403383;19;20010;-79
2022/08/13 06:42:18;;;;;;;12.48;7.40;;;;;;;22.97;66.20;101781.06;7404133;19;20029;-76
2022/08/13 06:44:59;;;;;;;11.43;7.28;;;;;;;23.26;65.96;101775.03;7400536;19;20015;-76
2022/08/13 06:47:33;;;;;;;16.30;6.90;;;;;;;23.34;64.54;101775.72;7395135;19;20096;-76
2022/08/13 06:50:13;;;;;;;13.05;7.07;;;;;;;23.63;63.84;101773.22;7391701;19;20018;-77
2022/08/13 06:52:46;;;;;;;13.15;6.68;;;;;;;23.69;63.44;101773.06;7383095;19;20011;-76
2022/08/13 06:55:44;;;;;;;12.65;6.50;;;;;;;23.93;62.54;101773.28;7387760;19;20360;-78
2022/08/13 06:58:35;;;;;;;9.65;5.60;;;;;;;24.19;62.87;101773.44;7393083;19;20002;-78
2022/08/13 07:01:05;;;;;;;12.43;6.50;;;;;;;24.16;61.10;101775.31;7396956;19;20017;-79
2022/08/13 07:03:40;;;;;;;12.55;6.43;;;;;;;24.22;60.00;101776.03;7407350;19;20011;-80
2022/08/13 07:06:26;;;;;;;10.45;5.80;;;;;;;24.54;59.28;101779.63;7406324;19;20341;-78
2022/08/13 07:09:04;;;;;;;9.05;6.07;;;;;;;24.81;58.86;101777.91;7408260;19;20019;-78
2022/08/13 07:11:37;;;;;;;9.88;6.15;;;;;;;25.04;58.12;101768.19;7409232;19;20007;-80
2022/08/13 07:14:10;;;;;;;13.85;5.82;;;;;;;25.10;56.28;101768.00;7415149;19;20018;-79
2022/08/13 07:16:45;;;;;;;11.57;6.30;;;;;;;24.92;55.85;101775.75;7412864;19;20059;-80
2022/08/13 07:19:21;;;;;;;9.68;6.10;;;;;;;25.19;55.88;101774.00;7408840;19;20017;-79
2022/08/13 07:21:52;;;;;;;9.75;5.60;;;;;;;25.37;55.41;101773.41;7402424;19;20010;-74
2022/08/13 07:24:29;;;;;;;8.10;5.32;;;;;;;25.60;54.55;101778.00;7382628;19;20035;-72
2022/08/13 07:27:19;;;;;;;7.38;5.47;;;;;;;25.69;53.47;101769.66;7382173;19;20550;-73
2022/08/13 07:29:49;;;;;;;10.85;6.35;;;;;;;25.76;53.71;101775.69;7383767;19;20018;-72
2022/08/13 07:32:23;;;;;;;9.13;5.50;;;;;;;25.97;52.96;101772.25;7381808;19;20447;-74
2022/08/13 07:35:12;;;;;;;10.25;6.47;;;;;;;26.02;53.62;101780.97;7384767;19;20094;-75
2022/08/13 07:41:13;;;;;;;9.98;5.60;;;;;;;26.20;52.06;101777.63;7408832;19;20011;-77
2022/08/13 07:43:46;;;;;;;9.77;5.68;;;;;;;26.30;52.62;101773.66;7386755;19;20015;-78
2022/08/13 07:46:42;;;;;;;10.88;6.20;;;;;;;26.39;51.87;101783.22;7381029;19;20017;-76
2022/08/13 07:49:29;;;;;;;10.15;5.65;;;;;;;26.68;51.73;101780.31;7383017;19;20010;-76
2022/08/13 07:52:14;;;;;;;9.20;5.30;;;;;;;26.77;51.52;101789.84;7379254;19;20080;-77
2022/08/13 07:54:46;;;;;;;11.73;5.78;;;;;;;26.83;50.82;101784.22;7379899;19;20010;-77
2022/08/13 07:57:23;;;;;;;9.93;5.80;;;;;;;26.65;50.78;101779.53;7384131;19;20011;-75
2022/08/13 08:00:21;;;;;;;10.35;6.05;;;;;;;26.81;50.37;101785.22;7381621;19;20018;-77
2022/08/13 08:03:01;;;;;;;11.18;5.82;;;;;;;27.00;50.35;101781.75;7381318;19;20049;-77
2022/08/13 08:05:35;;;;;;;12.73;5.95;;;;;;;27.20;51.38;101786.31;7384616;19;20144;-77
2022/08/13 08:08:10;;;;;;;11.13;5.25;;;;;;;27.65;49.37;101786.22;7388110;19;20006;-74
2022/08/13 08:11:00;;;;;;;12.02;5.40;;;;;;;27.91;48.72;101795.00;7379149;19;20352;-74
2022/08/13 08:13:39;;;;;;;10.88;4.88;;;;;;;27.61;49.36;101794.50;7375398;19;20721;-75
2022/08/13 08:16:14;;;;;;;6.82;5.00;;;;;;;27.61;48.14;101795.38;7377213;19;20191;-75
2022/08/13 08:18:45;;;;;;;8.57;5.38;;;;;;;27.65;48.49;101793.44;7376257;19;20099;-75
2022/08/13 08:21:40;;;;;;;10.77;5.18;;;;;;;27.68;49.68;101799.56;7379464;19;20348;-75
2022/08/13 08:24:32;;;;;;;7.18;4.90;;;;;;;28.09;48.90;101787.88;7382623;19;20352;-78
2022/08/13 08:27:10;;;;;;;8.15;5.28;;;;;;;28.10;48.03;101793.22;7395934;19;20010;-79
2022/08/13 08:29:52;;;;;;;9.48;5.65;;;;;;;28.17;48.00;101794.69;7403608;19;20039;-79
2022/08/13 08:32:32;;;;;;;9.90;5.65;;;;;;;28.22;47.88;101784.59;7404699;19;20011;-80
2022/08/13 08:35:09;;;;;;;9.65;5.38;;;;;;;28.56;47.65;101796.53;7408030;19;20031;-75
2022/08/13 08:43:29;;;;;;;10.93;5.40;;;;;;;28.61;48.00;101798.06;7384680;19;20047;-76
2022/08/13 08:46:08;;;;;;;11.88;5.32;;;;;;;28.74;47.12;101792.97;7392184;19;20013;-76
2022/08/13 08:48:45;;;;;;;10.20;5.53;;;;;;;28.91;47.46;101795.78;7385586;19;20320;-77
2022/08/13 08:51:27;;;;;;;11.45;5.18;;;;;;;28.90;46.39;101798.56;7392190;19;20007;-78
2022/08/13 08:54:08;;;;;;;7.43;4.70;;;;;;;29.15;45.59;101793.69;7394007;19;20332;-77
2022/08/13 08:56:59;;;;;;;9.43;5.10;;;;;;;29.43;45.09;101793.22;7387230;19;20003;-76
2022/08/13 08:59:41;;;;;;;8.75;4.72;;;;;;;29.51;45.65;101796.41;7395737;19;20010;-79
2022/08/13 09:02:25;;;;;;;7.72;4.40;;;;;;;29.73;44.51;101784.50;7394724;19;20576;-76
2022/08/13 09:04:57;;;;;;;6.32;4.03;;;;;;;29.55;43.25;101792.59;7389290;19;20011;-76
2022/08/13 09:07:49;;;;;;;11.43;5.15;;;;;;;29.63;43.05;101786.78;7380822;19;20010;-76
2022/08/13 09:10:24;;;;;;;6.18;4.10;;;;;;;29.77;42.75;101794.19;7386906;19;20007;-76
2022/08/13 09:13:05;;;;;;;8.48;4.18;;;;;;;29.74;41.59;101792.53;7385104;19;20174;-76
2022/08/13 09:15:42;;;;;;;7.50;4.25;;;;;;;29.96;42.25;101791.41;7386163;19;20007;-76
2022/08/13 09:18:21;;;;;;;7.15;4.28;;;;;;;29.73;43.13;101788.06;7380739;19;20516;-76
2022/08/13 09:21:02;;;;;;;8.10;4.60;;;;;;;29.96;43.70;101794.97;7377697;19;20010;-77
2022/08/13 09:23:57;;;;;;;9.68;4.22;;;;;;;29.88;41.83;101789.09;7378351;19;20243;-77
2022/08/13 09:26:49;;;;;;;8.65;3.72;;;;;;;30.24;40.29;101784.44;7392118;19;20374;-80
2022/08/13 09:29:30;;;;;;;7.82;4.18;;;;;;;30.14;40.68;101783.22;7392214;19;20050;-76
2022/08/13 09:32:09;;;;;;;7.03;4.00;;;;;;;30.12;39.79;101790.53;7376440;19;20061;-77
2022/08/13 09:35:05;;;;;;;8.10;4.07;;;;;;;30.30;39.47;101790.47;7385988;19;20013;-76
2022/08/13 09:37:40;;;;;;;7.15;4.05;;;;;;;30.16;38.98;101792.09;7375767;19;20011;-77
2022/08/13 09:40:32;;;;;;;7.65;3.95;;;;;;;30.15;39.53;101784.97;7378782;19;20015;-80
2022/08/13 09:43:48;;;;;;;13.40;4.40;;;;;;;30.21;39.76;101787.31;7376126;19;20010;-76
2022/08/13 09:46:24;;;;;;;8.38;4.13;;;;;;;30.12;40.62;101782.44;7380199;19;20026;-77
2022/08/13 09:49:18;;;;;;;7.18;4.00;;;;;;;30.63;39.65;101779.66;7379309;19;20010;-77
2022/08/13 09:52:12;;;;;;;8.60;3.85;;;;;;;30.74;39.37;101775.41;7378305;19;20036;-76
2022/08/13 09:54:49;;;;;;;9.52;3.90;;;;;;;30.46;39.44;101777.84;7374767;19;20412;-77
2022/08/13 09:57:20;;;;;;;6.63;3.83;;;;;;;30.52;38.63;101767.56;7377070;19;20039;-75
2022/08/13 09:59:51;;;;;;;5.85;3.60;;;;;;;30.33;38.43;101772.25;7380049;19;20023;-76
2022/08/13 10:02:27;;;;;;;8.07;3.70;;;;;;;30.78;37.57;101778.81;7380051;19;20016;-76
2022/08/13 10:05:01;;;;;;;6.85;3.88;;;;;;;31.17;37.92;101775.69;7375659;19;20015;-76
2022/08/13 10:07:43;;;;;;;8.52;3.60;;;;;;;31.18;38.17;101761.16;7381086;19;20113;-78
2022/08/13 10:10:18;;;;;;;5.57;3.33;;;;;;;31.00;37.90;101768.50;7382154;19;20051;-77
2022/08/13 10:13:04;;;;;;;6.35;3.30;;;;;;;30.95;37.74;101762.47;7377458;19;20018;-76
2022/08/13 10:15:41;;;;;;;6.25;3.70;;;;;;;31.00;38.77;101757.66;7379043;19;20034;-77
2022/08/13 10:18:16;;;;;;;7.35;4.25;;;;;;;31.16;37.60;101758.53;7380543;19;20027;-76
2022/08/13 10:20:48;;;;;;;5.57;3.40;;;;;;;31.70;37.23;101758.06;7380252;19;20023;-76
2022/08/13 10:23:25;;;;;;;6.85;3.90;;;;;;;30.95;37.89;101759.75;7389701;19;20015;-79
2022/08/13 10:26:12;;;;;;;7.40;4.30;;;;;;;31.45;36.73;101754.09;7394641;19;20011;-81
2022/08/13 10:28:43;;;;;;;6.50;3.80;;;;;;;31.61;36.69;101753.16;7401567;19;20139;-79
2022/08/13 10:31:17;;;;;;;5.07;3.97;;;;;;;31.65;36.14;101752.88;7407509;19;20039;-79
2022/08/13 10:34:11;;;;;;;;;;;;;;;32.22;35.41;101749.41;7414188;19;20015;-79
2022/08/13 10:36:49;;;;;;;5.95;4.00;;;;;;;31.81;35.88;101752.84;7410644;19;19936;-79
2022/08/13 10:39:27;;;;;;;9.02;4.25;;;;;;;32.06;35.38;101753.09;7406784;19;20370;-80
2022/08/13 10:42:16;;;;;;;8.98;4.35;;;;;;;31.84;36.06;101752.66;7415042;19;20017;-80
2022/08/13 10:44:47;;;;;;;5.78;4.57;;;;;;;31.60;35.56;101755.00;7419857;19;20006;-79
2022/08/13 10:47:19;;;;;;;6.22;4.50;;;;;;;31.72;35.73;101745.28;7421894;19;20010;-78
2022/08/13 10:50:10;;;;;;;8.77;5.28;;;;;;;31.84;35.46;101739.97;7417259;19;20007;-79
2022/08/13 10:52:49;;;;;;;8.20;5.40;;;;;;;32.16;35.23;101745.25;7412629;19;20011;-79
2022/08/13 10:55:30;;;;;;;7.85;5.32;;;;;;;32.66;35.22;101735.69;7416272;19;20010;-80
2022/08/13 10:58:13;;;;;;;9.35;5.50;;;;;;;32.58;35.07;101736.19;7417207;19;20035;-80
2022/08/13 11:01:05;;;;;;;8.88;5.60;;;;;;;32.36;35.15;101727.69;7414943;19;20010;-79
2022/08/13 11:03:45;;;;;;;9.32;5.60;;;;;;;32.24;34.60;101736.66;7414217;19;20062;-80
2022/08/13 11:06:32;;;;;;;9.98;5.70;;;;;;;32.62;34.72;101732.31;7409963;19;20014;-79
2022/08/13 11:09:11;;;;;;;7.35;4.95;;;;;;;32.49;35.01;101734.94;7410888;19;20032;-80
2022/08/13 11:12:05;;;;;;;7.60;4.60;;;;;;;32.53;34.50;101732.03;7410812;19;20031;-81
2022/08/13 11:14:42;;;;;;;7.18;4.15;;;;;;;32.60;33.00;101728.81;7415175;19;20057;-80
2022/08/13 11:17:17;;;;;;;6.60;4.28;;;;;;;32.60;33.94;101734.25;7412498;19;20022;-79
2022/08/13 11:20:16;;;;;;;6.93;4.90;;;;;;;32.54;33.77;101733.78;7410519;19;20007;-78
2022/08/13 11:22:55;;;;;;;7.38;4.65;;;;;;;32.66;33.77;101717.56;7406663;19;20621;-80
2022/08/13 11:25:30;;;;;;;8.73;4.10;;;;;;;32.79;33.65;101710.38;7406961;19;20011;-80
2022/08/13 11:28:25;;;;;;;8.25;3.92;;;;;;;32.86;32.22;101712.69;7409829;19;20081;-79
2022/08/13 11:31:00;;;;;;;6.63;4.00;;;;;;;32.98;32.55;101711.88;7416349;19;20014;-79
2022/08/13 11:33:35;;;;;;;6.18;3.50;;;;;;;33.10;32.87;101711.03;7413368;19;20002;-80
2022/08/13 11:36:27;;;;;;;6.13;3.25;;;;;;;33.33;32.08;101709.47;7407039;19;20018;-81
2022/08/13 11:39:07;;;;;;;5.97;3.60;;;;;;;32.71;33.10;101703.69;7404021;19;20384;-79
2022/08/13 11:41:38;;;;;;;8.25;3.70;;;;;;;33.14;32.77;101704.44;7402009;19;20016;-78
2022/08/13 11:44:47;;;;;;;5.25;3.10;;;;;;;32.70;32.06;101705.50;7412606;19;20031;-81
2022/08/13 11:47:24;;;;;;;5.93;3.20;;;;;;;33.30;32.28;101696.09;7415528;19;20011;-77
2022/08/13 11:50:08;;;;;;;4.40;3.17;;;;;;;33.35;31.13;101700.25;7405358;19;20002;-78
2022/08/13 11:52:42;;;;;;;5.88;3.20;;;;;;;33.44;31.49;101687.84;7399594;19;20011;-82
2022/08/13 11:55:15;;;;;;;5.65;3.05;;;;;;;33.26;31.49;101697.28;7405376;19;20017;-80
2022/08/13 11:57:51;;;;;;;5.78;3.20;;;;;;;33.22;31.58;101707.50;7411330;19;20423;-79
2022/08/13 12:00:23;;;;;;;4.70;3.08;;;;;;;33.66;31.09;101698.09;7412983;19;20015;-79
2022/08/13 12:03:09;;;;;;;5.32;3.03;;;;;;;33.88;30.70;101703.81;7403802;19;20021;-79
2022/08/13 12:05:39;;;;;;;5.13;3.10;;;;;;;33.53;30.27;101703.53;7405272;19;19999;-80
2022/08/13 12:08:15;;;;;;;4.30;2.88;;;;;;;33.14;30.21;101707.16;7405469;19;20459;-79
2022/08/13 12:11:08;;;;;;;5.13;3.03;;;;;;;33.34;31.43;101703.94;7406491;19;20025;-80
2022/08/13 12:13:47;;;;;;;4.32;2.92;;;;;;;33.32;30.69;101697.72;7411137;19;20011;-79
2022/08/13 12:16:25;;;;;;;5.88;2.70;;;;;;;33.33;29.90;101688.59;7410150;19;20010;-79
2022/08/13 12:18:55;;;;;;;5.18;2.67;;;;;;;32.92;30.05;101701.41;7406636;19;20009;-80
2022/08/13 12:21:45;;;;;;;5.97;2.85;;;;;;;32.90;29.83;101692.50;7402064;19;20039;-80
2022/08/13 12:24:17;;;;;;;4.88;2.72;;;;;;;33.01;31.00;101684.50;7405784;19;20042;-79
2022/08/13 12:26:50;;;;;;;6.00;3.13;;;;;;;33.11;29.74;101680.16;7409154;19;20006;-78
2022/08/13 12:29:24;;;;;;;6.30;2.55;;;;;;;33.36;29.08;101673.91;7405021;19;20368;-79
2022/08/13 12:32:18;;;;;;;5.07;3.00;;;;;;;33.29;28.26;101673.47;7400738;19;20490;-79
2022/08/13 12:34:51;;;;;;;4.80;2.80;;;;;;;33.74;28.32;101673.97;7400264;19;20003;-78
2022/08/13 12:37:31;;;;;;;4.97;2.88;;;;;;;33.69;28.82;101665.25;7402538;19;20394;-79
2022/08/13 12:40:18;;;;;;;4.70;3.00;;;;;;;33.73;28.82;101667.66;7402836;19;20011;-81
2022/08/13 12:43:00;;;;;;;5.03;3.20;;;;;;;33.65;29.26;101669.16;7407335;19;20236;-80
2022/08/13 12:45:41;;;;;;;5.57;3.17;;;;;;;33.69;29.38;101662.53;7409362;19;20521;-79
2022/08/13 12:48:44;;;;;;;4.93;3.00;;;;;;;33.75;29.62;101656.66;7380897;19;20031;-74
2022/08/13 12:51:34;;;;;;;5.80;2.92;;;;;;;33.67;29.81;101659.06;7378436;19;20375;-74
2022/08/13 12:54:29;;;;;;;4.53;3.20;;;;;;;33.95;29.73;101656.13;7378831;19;20022;-73
2022/08/13 12:57:22;;;;;;;5.32;3.22;;;;;;;33.92;29.75;101650.91;7383362;19;20052;-74
2022/08/13 13:00:29;;;;;;;5.43;2.90;;;;;;;34.04;29.55;101636.41;7380030;19;20050;-73
2022/08/13 13:03:06;;;;;;;6.03;2.85;;;;;;;34.06;29.04;101647.19;7379601;19;20014;-73
2022/08/13 13:05:49;;;;;;;4.53;2.70;;;;;;;33.51;28.48;101644.78;7382397;19;20017;-74
2022/08/13 13:08:30;;;;;;;6.45;3.30;;;;;;;33.60;28.02;101644.13;7384414;19;20021;-74
2022/08/13 13:11:17;;;;;;;3.92;2.78;;;;;;;33.99;27.17;101627.72;7377777;19;20007;-73
2022/08/13 13:13:49;;;;;;;5.28;2.70;;;;;;;34.39;26.93;101635.66;7380693;19;20011;-73
2022/08/13 13:16:38;;;;;;;6.07;2.92;;;;;;;34.50;25.87;101632.16;7378164;19;20010;-73
2022/08/13 13:19:30;;;;;;;7.30;3.20;;;;;;;34.50;26.94;101633.03;7376302;19;20014;-74
2022/08/13 13:22:25;;;;;;;4.03;2.78;;;;;;;34.32;25.67;101634.41;7388000;19;20002;-79
2022/08/13 13:25:00;;;;;;;5.93;3.03;;;;;;;34.33;26.00;101634.28;7392629;19;20011;-78